METAR Data
IDs: Format: Raw Decoded Include TAF

Data at: 1853 UTC 14 Dec 2018

KHRL 141752Z 31025G34KT 10SM CLR 18/M04 A3015 RMK AO2 PK WND 31038/1657 SLP210 60000 T01781044 10178 20089 58003
KHRL 141652Z 31027G36KT 10SM CLR 17/M05 A3017 RMK AO2 PK WND 31041/1634 RAE01 SLP217 P0000 T01671050
KHRL 141601Z 31027G37KT 10SM CLR 16/M04 A3017 RMK AO2 PK WND 31037/1557 RAE01 P0000 T01561044
KHRL 141552Z 31027G34KT 10SM -RA CLR 16/M04 A3017 RMK AO2 PK WND 31034/1549 RAB1456 SLP214 P0000 T01561044
KHRL 141452Z 31015KT 10SM CLR 13/M03 A3016 RMK AO2 SLP214 T01281028 51025
KHRL 141352Z 30010KT 10SM CLR 09/M03 A3014 RMK AO2 SLP207 T00941028
KHRL 141252Z 30012KT 10SM CLR 09/M03 A3012 RMK AO2 SLP197 T00941033
KHRL 141152Z 31014KT 10SM CLR 11/M03 A3009 RMK AO2 SLP188 T01061028 10133 20089 53003
KHRL 141052Z AUTO 29012KT 10SM CLR 11/M02 A3008 RMK AO2 SLP184 T01111022
KHRL 140952Z AUTO 29011KT 10SM CLR 11/M02 A3007 RMK AO2 SLP182 T01061017
KHRL 140852Z AUTO 29012KT 10SM CLR 11/M01 A3008 RMK AO2 SLP185 T01111006 50001
KHRL 140752Z AUTO 30010KT 10SM CLR 11/00 A3009 RMK AO2 SLP188 T01060000
KHRL 140652Z AUTO 32017KT 10SM CLR 12/M01 A3008 RMK AO2 PK WND 31028/0622 SLP185 T01221006
KHRL 140552Z AUTO 31015KT 10SM CLR 13/M01 A3007 RMK AO2 SLP184 T01331006 10206 20128 402830128 50018
KHRL 140452Z 31010KT 10SM CLR 13/02 A3009 RMK AO2 PK WND 32027/0421 PRESRR SLP189 T01330017
KHRL 140352Z 32018G28KT 10SM FEW120 13/02 A3006 RMK AO2 PK WND 32034/0324 SLP178 T01330017
KHRL 140252Z 33011KT 10SM FEW110 13/04 A3002 RMK AO2 PK WND 33026/0156 SLP166 T01330039 51060
KHRL 140152Z 33021G33KT 10SM BKN100 16/02 A2999 RMK AO2 PK WND 33033/0145 SLP155 T01560022
KHRL 140052Z 33018KT 10SM CLR 17/04 A2993 RMK AO2 PK WND 35030/0002 PRESRR SLP134 T01720039
KHRL 132352Z 34012KT 10SM CLR 21/10 A2985 RMK AO2 PRESRR SLP106 T02060100 10283 20206 53034
KHRL 132252Z 34020G27KT 10SM CLR 26/10 A2979 RMK AO2 PK WND 34027/2251 SLP087 T02560100
KHRL 132152Z 31015G23KT 10SM CLR 28/08 A2976 RMK AO2 SLP076 T02780083
KHRL 132052Z 33013KT 10SM CLR 28/13 A2975 RMK AO2 SLP073 T02780128 56017
KHRL 131952Z 28012KT 10SM CLR 28/13 A2975 RMK AO2 SLP072 T02830128
KHRL 131852Z 28011KT 10SM CLR 28/14 A2977 RMK AO2 SLP080 T02780144
KHRL 131752Z 25010KT 10SM CLR 26/17 A2980 RMK AO2 SLP089 T02610172 10261 20161 58006
KHRL 131652Z 23008KT 10SM CLR 24/18 A2981 RMK AO2 SLP095 T02390178
KHRL 131552Z 24010KT 10SM CLR 22/18 A2982 RMK AO2 SLP098 T02170178
KHRL 131452Z 23006KT 10SM CLR 19/18 A2981 RMK AO2 SLP095 T01940178 53018
KHRL 131352Z 20004KT 5SM BR CLR 17/16 A2980 RMK AO2 SLP090 T01670161
KHRL 131252Z 17008KT 7SM CLR 17/16 A2977 RMK AO2 SLP081 T01720161
KHRL 131152Z 15010KT 8SM CLR 18/17 A2976 RMK AO2 RAB21E34 SLP077 P0000 60039 70044 T01780172 10200 20178 58018
KHRL 131052Z AUTO 30003KT 10SM FEW006 BKN047 OVC065 18/18 A2982 RMK AO2 WSHFT 0940 LTG DSNT NE RAE08 SLP097 P0001 T01830178
KHRL 131042Z AUTO 31007KT 10SM FEW006 SCT026 OVC045 19/18 A2982 RMK AO2 WSHFT 0940 LTG DSNT NE AND E RAE08 P0001 T01890178
KHRL 131033Z AUTO 31011KT 10SM SCT006 BKN025 OVC043 19/18 A2983 RMK AO2 WSHFT 0940 LTG DSNT NE AND E RAE08 P0001 T01890178
KHRL 131026Z AUTO 30013KT 10SM SCT017 BKN025 OVC043 19/18 A2984 RMK AO2 WSHFT 0940 LTG DSNT NE AND E RAE08 P0001 T01890178
KHRL 131006Z AUTO 30011KT 10SM VCTS -RA FEW012 BKN019 OVC039 19/18 A2984 RMK AO2 WSHFT 0940 LTG DSNT N-E P0001 T01940178
KHRL 130959Z AUTO 30014KT 2SM VCTS -RA BR SCT014 BKN023 OVC060 19/18 A2984 RMK AO2 WSHFT 0940 LTG DSNT N AND NE P0001 T01940183
KHRL 130952Z AUTO 30011G23KT 1 3/4SM VCTS +RA BR SCT014 BKN025 OVC060 19/18 A2984 RMK AO2 LTG DSNT NE AND NW RAB44 SLP104 P0024 T01940183
KHRL 130949Z AUTO 30019G23KT 3SM VCTS +RA BR FEW009 BKN023 OVC110 20/18 A2985 RMK AO2 LTG DSNT NE AND NW RAB44 P0012
KHRL 130937Z AUTO 25010KT 10SM VCTS FEW040 SCT060 BKN110 20/18 A2983 RMK AO2 LTG DSNT N AND NW PRESRR T02000178
KHRL 130852Z AUTO 22009KT 10SM FEW048 SCT080 OVC110 20/18 A2981 RMK AO2 LTG DSNT W RAE43 SLP095 P0005 60014 T02000183 58028
KHRL 130752Z AUTO 20013KT 10SM -RA OVC085 19/18 A2986 RMK AO2 SLP112 P0004 T01940183